Montague, California
Current Conditions -  °F | °C
As of 1:53 AM on Friday 28 Nov 2014 (Local Time) from KSIY Reporting Station
Clear Clear  
Wind Chill: 34°   Ceiling: Unl
Heat Index: 39°   Visibility: 10mi
Dew Point: 33°   Wind: 7mph
Humidity: 79%   Direction: 40°NE
Pressure: 29.94"   Gusts: NA
Location:  41.73°N, 122.53°W
Report Text: KSIY 280953Z AUTO 04006KT 10SM CLR 04/01 A2994 RMK AO2 SLP149 T00390006
Loading
Personal Weather Stations






























Interactive Weather Map New forecast layout! Learn more

10-Day Weather Forecast

Advertisements
Track Severe Weather on mobile